»·PEaware :: N1JG KPRC-KBLH

N1JG :: KPRC-KBLH

FLIGHT INFORMATION

Flight Status: Arrived
Operator: Privately registered:
United States
More flights under this callsign
Pilot: Josh G. (4619)
Aircraft: Unknown
(TBM9)
More flights by this aircraft type
Origin: KPRC Love
United States
Destination: KBLH Blythe
United States
More flights between these airports :: More routes between these airports
Route:
File this flight plan on PilotEdge
Remarks:
Altitude:
(Current/Filed)
16,500ft
Speed:
(Current/Filed)
270kts
Departed: 27-Dec-17 10:00 PM
Arrived: 27-Dec-17 10:35 PM
Distance/Time
Traveled:
130nm/0:35
Distance/Time
To Go:
Arrived

Flight Plot

Page will automatically refresh every two minutes.

Flight plan parsing failed; only flown route is shown


Map Options




Map Legend


Flown Route
Filed Route
Departure Airport
Arrival Airport
Navaid (VOR, NDB)
Fix

Horizontal Profiles

Position Reports

Time Latitude Longitude Heading Altitude Ground
Speed
27-Dec-17 21:51 34.650499 -112.420453 41 5014ft 0kts
27-Dec-17 21:52 34.650499 -112.420453 41 5014ft 0kts
27-Dec-17 21:53 34.650499 -112.420453 41 5014ft 0kts
27-Dec-17 21:54 34.650499 -112.420453 41 5014ft 0kts
27-Dec-17 21:55 34.650499 -112.420453 41 5014ft 0kts
27-Dec-17 21:56 34.650499 -112.420453 41 5014ft 0kts
27-Dec-17 21:57 34.650815 -112.421226 308 5001ft 0kts
27-Dec-17 21:58 34.650815 -112.421226 308 5001ft 0kts
27-Dec-17 21:59 34.650815 -112.421226 308 5001ft 0kts
27-Dec-17 22:00 34.650815 -112.421226 308 5001ft 0kts
27-Dec-17 22:01 34.651668 -112.420674 38 5001ft 8kts
27-Dec-17 22:02 34.654512 -112.417642 19 4993ft 22kts
27-Dec-17 22:03 34.656733 -112.415336 38 4983ft 11kts
27-Dec-17 22:04 34.658889 -112.412250 40 4961ft 7kts
27-Dec-17 22:05 34.659583 -112.411535 36 4956ft 8kts
27-Dec-17 22:06 34.659173 -112.414486 221 4963ft 68kts
27-Dec-17 22:07 34.638068 -112.447906 247 6262ft 144kts
27-Dec-17 22:08 34.622828 -112.496424 247 7841ft 167kts
27-Dec-17 22:09 34.605362 -112.551629 247 9078ft 190kts
27-Dec-17 22:10 34.586310 -112.611708 247 10319ft 193kts
27-Dec-17 22:11 34.567145 -112.672317 247 11441ft 197kts
27-Dec-17 22:12 34.544776 -112.732673 239 12605ft 191kts
27-Dec-17 22:13 34.518705 -112.790048 242 13489ft 197kts
27-Dec-17 22:14 34.491042 -112.850746 244 14324ft 219kts
27-Dec-17 22:15 34.462224 -112.914300 244 15950ft 216kts
27-Dec-17 22:16 34.431480 -112.982213 243 16529ft 255kts
27-Dec-17 22:17 34.395522 -113.061194 244 16512ft 276kts
27-Dec-17 22:18 34.358007 -113.143361 244 16509ft 281kts
27-Dec-17 22:19 34.320169 -113.225975 244 16508ft 282kts
27-Dec-17 22:20 34.282034 -113.308987 244 16507ft 283kts
27-Dec-17 22:21 34.243690 -113.392218 243 16507ft 283kts
27-Dec-17 22:22 34.205486 -113.474944 243 16369ft 286kts
27-Dec-17 22:23 34.166865 -113.558379 243 16372ft 282kts
27-Dec-17 22:24 34.128741 -113.640342 243 16372ft 279kts
27-Dec-17 22:25 34.091391 -113.720500 243 16375ft 281kts
27-Dec-17 22:26 34.052874 -113.803002 243 16374ft 283kts
27-Dec-17 22:27 34.014077 -113.885883 243 16374ft 284kts
27-Dec-17 22:28 33.975900 -113.967846 240 16368ft 275kts
27-Dec-17 22:29 33.938675 -114.046919 240 16369ft 270kts
27-Dec-17 22:30 33.901603 -114.125502 240 16370ft 270kts
27-Dec-17 22:31 33.864759 -114.203820 238 15387ft 297kts
27-Dec-17 22:32 33.821898 -114.293645 239 13433ft 321kts
27-Dec-17 22:33 33.777703 -114.385800 242 12056ft 312kts
27-Dec-17 22:34 33.738521 -114.468055 242 9658ft 277kts
27-Dec-17 22:35 33.700829 -114.547184 241 6536ft 270kts
27-Dec-17 22:36 33.664282 -114.621617 234 4634ft 245kts
27-Dec-17 22:37 33.626568 -114.687217 247 4003ft 237kts
27-Dec-17 22:38 33.602015 -114.711007 85 2662ft 170kts
27-Dec-17 22:39 33.616412 -114.688357 291 1597ft 111kts
27-Dec-17 22:40 33.616571 -114.723479 274 394ft 69kts
27-Dec-17 22:41 33.615415 -114.727663 150 394ft 0kts
27-Dec-17 22:42 33.615415 -114.727663 150 394ft 0kts
27-Dec-17 22:43 33.615415 -114.727663 150 394ft 0kts
27-Dec-17 22:44 33.615415 -114.727663 150 394ft 0kts
27-Dec-17 22:45 33.615415 -114.727663 150 394ft 0kts
27-Dec-17 22:46 33.615172 -114.725805 90 394ft 1kts
27-Dec-17 22:47 33.615159 -114.722787 89 394ft 17kts
27-Dec-17 22:48 33.615138 -114.715145 91 394ft 26kts
27-Dec-17 22:49 33.614727 -114.712263 4 394ft 0kts
27-Dec-17 22:50 33.614727 -114.712263 3 394ft 0kts
27-Dec-17 22:51 33.614727 -114.712263 3 394ft 0kts
27-Dec-17 22:52 33.614727 -114.712263 3 394ft 0kts
27-Dec-17 22:53 33.614727 -114.712263 3 394ft 0kts
27-Dec-17 22:54 33.614727 -114.712263 3 394ft 0kts
27-Dec-17 22:55 33.614727 -114.712263 3 394ft 0kts

Navigation Log

Ident Type
Flight plan parsing failed, navigation log unavailable